createdAt,value
2019-06-26T00:02:14.352Z,12.47
2019-06-26T00:04:46.081Z,12.30
2019-06-26T00:07:17.936Z,9.15
2019-06-26T00:09:49.672Z,14.70
2019-06-26T00:12:21.421Z,10.65
2019-06-26T00:14:53.228Z,12.47
2019-06-26T00:17:24.947Z,13.68
2019-06-26T00:19:56.764Z,10.67
2019-06-26T00:22:28.660Z,14.93
2019-06-26T00:25:00.396Z,12.93
2019-06-26T00:27:32.198Z,10.37
2019-06-26T00:30:04.152Z,10.05
2019-06-26T00:32:35.957Z,9.98
2019-06-26T00:35:07.915Z,17.65
2019-06-26T00:37:39.706Z,13.93
2019-06-26T00:40:12.216Z,12.77
2019-06-26T00:42:44.028Z,13.72
2019-06-26T00:45:15.941Z,11.17
2019-06-26T00:47:47.645Z,11.53
2019-06-26T00:50:19.572Z,10.88
2019-06-26T00:52:51.383Z,12.63
2019-06-26T00:55:23.120Z,13.27
2019-06-26T00:57:55.023Z,10.43
2019-06-26T01:00:33.222Z,19.73
2019-06-26T01:03:04.929Z,13.83
2019-06-26T01:05:36.651Z,10.47
2019-06-26T01:08:08.494Z,12.00
2019-06-26T01:10:40.490Z,15.03
2019-06-26T01:13:12.275Z,14.87
2019-06-26T01:15:44.027Z,14.00
2019-06-26T01:18:15.836Z,12.93
2019-06-26T01:20:47.770Z,17.12
2019-06-26T01:23:19.485Z,13.87
2019-06-26T01:25:51.307Z,15.83
2019-06-26T01:28:23.008Z,15.97
2019-06-26T01:30:54.719Z,13.07
2019-06-26T01:33:26.438Z,13.50
2019-06-26T01:35:58.173Z,26.07
2019-06-26T01:38:29.973Z,15.63
2019-06-26T01:41:01.735Z,11.63
2019-06-26T01:43:33.565Z,15.27
2019-06-26T01:46:05.360Z,19.52
2019-06-26T01:48:37.096Z,16.27
2019-06-26T01:51:08.815Z,12.13
2019-06-26T01:53:40.512Z,14.50
2019-06-26T01:56:12.223Z,17.70
2019-06-26T01:58:43.937Z,19.87
2019-06-26T02:01:15.737Z,15.80
2019-06-26T02:03:47.605Z,15.57
2019-06-26T02:06:19.514Z,13.80
2019-06-26T02:08:51.316Z,13.67
2019-06-26T02:11:23.276Z,23.60
2019-06-26T02:13:55.040Z,15.80
2019-06-26T02:16:26.921Z,15.47
2019-06-26T02:19:01.169Z,17.97
2019-06-26T02:21:33.092Z,16.17
2019-06-26T02:24:04.796Z,18.57
2019-06-26T02:26:36.801Z,15.63
2019-06-26T02:29:08.600Z,13.47
2019-06-26T02:31:40.512Z,14.30
2019-06-26T02:34:12.218Z,16.70
2019-06-26T02:36:43.941Z,13.30
2019-06-26T02:39:15.636Z,15.68
2019-06-26T02:41:47.369Z,19.63
2019-06-26T02:44:19.080Z,15.63
2019-06-26T02:46:50.894Z,16.77
2019-06-26T02:49:22.709Z,19.13
2019-06-26T02:51:54.436Z,23.83
2019-06-26T02:54:26.146Z,13.40
2019-06-26T02:56:58.057Z,17.17
2019-06-26T02:59:29.762Z,18.13
2019-06-26T03:02:01.469Z,21.60
2019-06-26T03:04:33.286Z,17.17
2019-06-26T03:07:05.221Z,20.20
2019-06-26T03:09:36.913Z,16.93
2019-06-26T03:12:08.634Z,18.40
2019-06-26T03:14:40.435Z,28.05
2019-06-26T03:17:12.145Z,18.53
2019-06-26T03:19:43.948Z,23.42
2019-06-26T03:22:15.675Z,25.05
2019-06-26T03:24:47.393Z,25.02
2019-06-26T03:27:19.211Z,21.48
2019-06-26T03:29:50.941Z,25.85
2019-06-26T03:32:22.694Z,17.45
2019-06-26T03:34:54.530Z,18.23
2019-06-26T03:37:26.253Z,19.25
2019-06-26T03:39:57.956Z,19.92
2019-06-26T03:42:29.681Z,20.97
2019-06-26T03:45:01.643Z,21.50
2019-06-26T03:47:33.619Z,18.90
2019-06-26T03:50:06.144Z,18.98
2019-06-26T03:52:37.959Z,26.05
2019-06-26T03:55:09.849Z,21.17
2019-06-26T03:57:41.605Z,20.30
2019-06-26T04:00:14.703Z,19.70
2019-06-26T04:02:46.497Z,20.12
2019-06-26T04:05:18.197Z,20.20
2019-06-26T04:07:50.072Z,23.60
2019-06-26T04:10:21.772Z,22.27
2019-06-26T04:12:53.608Z,22.45
2019-06-26T04:15:40.945Z,18.02
2019-06-26T04:17:59.040Z,23.92
2019-06-26T04:20:30.851Z,21.40
2019-06-26T04:23:02.608Z,19.27
2019-06-26T04:25:36.085Z,24.90
2019-06-26T04:28:08.243Z,29.77
2019-06-26T04:30:39.973Z,21.90
2019-06-26T04:33:11.769Z,18.85
2019-06-26T04:35:43.484Z,20.10
2019-06-26T04:38:15.183Z,18.35
2019-06-26T04:40:46.880Z,19.67
2019-06-26T04:43:18.599Z,18.80
2019-06-26T04:45:58.233Z,18.52
2019-06-26T04:48:24.092Z,20.55
2019-06-26T04:50:55.919Z,17.85
2019-06-26T04:53:27.647Z,20.15
2019-06-26T04:55:59.335Z,18.85
2019-06-26T04:58:31.057Z,18.40
2019-06-26T05:01:03.057Z,25.15
2019-06-26T05:03:34.861Z,17.40
2019-06-26T05:06:06.664Z,18.12
2019-06-26T05:08:38.428Z,18.17
2019-06-26T05:11:12.625Z,23.35
2019-06-26T05:13:43.794Z,20.45
2019-06-26T05:16:19.261Z,19.23
2019-06-26T05:18:49.367Z,19.12
2019-06-26T05:21:21.055Z,18.45
2019-06-26T05:23:52.763Z,18.82
2019-06-26T05:26:24.469Z,19.82
2019-06-26T05:28:56.224Z,17.87
2019-06-26T05:31:28.041Z,18.48
2019-06-26T05:33:59.859Z,19.85
2019-06-26T05:36:31.660Z,16.80
2019-06-26T05:39:05.362Z,18.62
2019-06-26T05:41:37.058Z,16.37
2019-06-26T05:44:08.773Z,16.25
2019-06-26T05:46:40.500Z,18.42
2019-06-26T05:49:12.321Z,17.27
2019-06-26T05:51:44.035Z,17.52
2019-06-26T05:54:15.751Z,19.17
2019-06-26T05:56:47.488Z,17.98
2019-06-26T05:59:19.260Z,21.00
2019-06-26T06:01:50.962Z,26.48
2019-06-26T06:04:22.674Z,17.77
2019-06-26T06:06:54.355Z,16.85
2019-06-26T06:09:26.203Z,17.25
2019-06-26T06:11:57.913Z,16.55
2019-06-26T06:14:29.626Z,13.78
2019-06-26T06:17:01.335Z,16.42
2019-06-26T06:19:33.064Z,16.07
2019-06-26T06:22:04.771Z,19.65
2019-06-26T06:24:36.639Z,20.35
2019-06-26T06:27:08.497Z,14.98
2019-06-26T06:29:40.242Z,16.42
2019-06-26T06:32:12.060Z,19.57
2019-06-26T06:34:43.897Z,18.60
2019-06-26T06:37:16.339Z,15.60
2019-06-26T06:39:48.087Z,19.85
2019-06-26T06:42:19.880Z,18.77
2019-06-26T06:44:51.607Z,12.82
2019-06-26T06:47:23.516Z,26.62
2019-06-26T06:49:55.424Z,14.35
2019-06-26T06:52:27.116Z,18.95
2019-06-26T06:54:58.864Z,13.83
2019-06-26T06:57:30.571Z,12.23
2019-06-26T07:00:02.507Z,14.60
2019-06-26T07:02:34.200Z,16.75
2019-06-26T07:05:06.026Z,11.85
2019-06-26T07:07:37.731Z,16.40
2019-06-26T07:10:09.807Z,13.65
2019-06-26T07:12:41.692Z,11.35
2019-06-26T07:15:15.454Z,10.53
2019-06-26T07:17:47.241Z,11.65
2019-06-26T07:20:19.167Z,11.60
2019-06-26T07:22:50.868Z,11.48
2019-06-26T07:25:22.576Z,10.00
2019-06-26T07:27:54.275Z,10.13
2019-06-26T07:30:26.090Z,16.42
2019-06-26T07:32:57.812Z,10.03
2019-06-26T07:35:29.617Z,10.18
2019-06-26T07:38:01.429Z,10.38
2019-06-26T07:40:33.145Z,9.83
2019-06-26T07:43:04.858Z,10.88
2019-06-26T07:45:36.623Z,9.23
2019-06-26T07:48:08.346Z,17.23
2019-06-26T07:50:40.183Z,9.98
2019-06-26T07:53:11.872Z,13.20
2019-06-26T07:55:43.596Z,10.32
2019-06-26T07:58:15.309Z,9.70
2019-06-26T08:00:47.073Z,12.20
2019-06-26T08:03:18.860Z,9.48
2019-06-26T08:05:50.799Z,10.55
2019-06-26T08:08:22.595Z,8.23
2019-06-26T08:10:54.972Z,8.78
2019-06-26T08:13:26.790Z,8.43
2019-06-26T08:15:58.632Z,10.53
2019-06-26T08:18:30.357Z,7.80
2019-06-26T08:21:12.178Z,14.65
2019-06-26T08:23:35.859Z,14.85
2019-06-26T08:26:07.577Z,8.65
2019-06-26T08:28:39.334Z,8.30
2019-06-26T08:31:11.252Z,7.90
2019-06-26T08:33:42.956Z,10.78
2019-06-26T08:36:14.718Z,9.33
2019-06-26T08:38:46.538Z,14.05
2019-06-26T08:41:18.250Z,11.60
2019-06-26T08:43:49.954Z,9.85
2019-06-26T08:46:21.679Z,19.55
2019-06-26T08:48:53.372Z,12.07
2019-06-26T08:51:25.103Z,8.23
2019-06-26T08:53:56.807Z,13.88
2019-06-26T08:56:28.577Z,11.60
2019-06-26T08:59:00.343Z,11.55
2019-06-26T09:01:32.191Z,10.65
2019-06-26T09:04:03.979Z,10.95
2019-06-26T09:06:35.825Z,10.70
2019-06-26T09:09:07.741Z,10.43
2019-06-26T09:11:39.684Z,7.35
2019-06-26T09:14:11.389Z,9.53
2019-06-26T09:16:43.202Z,9.50
2019-06-26T09:19:14.913Z,8.58
2019-06-26T09:21:46.679Z,7.97
2019-06-26T09:24:18.459Z,8.95
2019-06-26T09:26:50.205Z,9.40
2019-06-26T09:29:23.998Z,10.13
2019-06-26T09:31:55.581Z,9.35
2019-06-26T09:34:27.386Z,9.90
2019-06-26T09:36:59.108Z,9.00
2019-06-26T09:39:31.086Z,8.33
2019-06-26T09:42:03.011Z,8.20
2019-06-26T09:44:34.704Z,19.27
2019-06-26T09:47:06.420Z,7.33
2019-06-26T09:49:38.128Z,9.20
2019-06-26T09:52:09.848Z,8.18
2019-06-26T09:54:41.649Z,7.85
2019-06-26T09:57:13.483Z,11.22
2019-06-26T09:59:45.220Z,14.40
2019-06-26T10:02:16.948Z,8.08
2019-06-26T10:04:48.653Z,15.28
2019-06-26T10:07:20.392Z,8.93
2019-06-26T10:09:52.088Z,15.43
2019-06-26T10:12:23.975Z,12.18
2019-06-26T10:14:55.841Z,10.38
2019-06-26T10:17:27.646Z,7.20
2019-06-26T10:19:59.437Z,11.53
2019-06-26T10:22:31.145Z,7.83
2019-06-26T10:25:03.710Z,7.60
2019-06-26T10:27:35.643Z,13.22
2019-06-26T10:30:07.983Z,9.85
2019-06-26T10:32:39.765Z,9.30
2019-06-26T10:35:11.702Z,9.40
2019-06-26T10:37:43.439Z,11.83
2019-06-26T10:40:16.620Z,10.53
2019-06-26T10:42:49.172Z,12.05
2019-06-26T10:45:21.011Z,13.32
2019-06-26T10:47:52.803Z,10.78
2019-06-26T10:50:24.507Z,8.75
2019-06-26T10:52:56.244Z,9.15
2019-06-26T10:55:28.142Z,12.13
2019-06-26T10:57:59.876Z,7.78
2019-06-26T11:00:32.001Z,12.13
2019-06-26T11:03:03.914Z,8.70
2019-06-26T11:05:35.704Z,9.98
2019-06-26T11:08:07.428Z,8.27
2019-06-26T11:10:39.196Z,10.20
2019-06-26T11:13:10.975Z,7.37
2019-06-26T11:15:42.680Z,7.33
2019-06-26T11:18:14.394Z,10.65
2019-06-26T11:20:46.101Z,11.38
2019-06-26T11:23:17.928Z,9.78
2019-06-26T11:25:49.825Z,7.95
2019-06-26T11:28:21.535Z,11.60
2019-06-26T11:30:53.301Z,11.87
2019-06-26T11:33:25.124Z,13.30
2019-06-26T11:35:56.909Z,8.83
2019-06-26T11:38:28.628Z,8.88
2019-06-26T11:41:01.981Z,11.05
2019-06-26T11:43:33.962Z,10.13
2019-06-26T11:46:05.757Z,14.13
2019-06-26T11:48:37.488Z,8.18
2019-06-26T11:51:09.229Z,9.40
2019-06-26T11:53:40.994Z,12.50
2019-06-26T11:56:12.703Z,8.45
2019-06-26T11:58:44.566Z,14.78
2019-06-26T12:01:16.464Z,12.85
2019-06-26T12:03:48.663Z,14.85
2019-06-26T12:06:20.483Z,8.93
2019-06-26T12:08:52.187Z,10.25
2019-06-26T12:11:23.993Z,10.75
2019-06-26T12:13:55.710Z,9.10
2019-06-26T12:16:27.403Z,7.42
2019-06-26T12:18:59.119Z,13.10
2019-06-26T12:21:30.835Z,11.55
2019-06-26T12:24:02.747Z,9.53
2019-06-26T12:26:34.424Z,12.43
2019-06-26T12:29:06.186Z,7.45
2019-06-26T12:31:38.087Z,31.77
2019-06-26T12:34:09.879Z,9.68
2019-06-26T12:36:41.616Z,9.78
2019-06-26T12:39:13.447Z,8.98
2019-06-26T12:41:45.160Z,12.05
2019-06-26T12:44:16.883Z,17.20
2019-06-26T12:46:48.592Z,7.10
2019-06-26T12:49:20.415Z,8.43
2019-06-26T12:51:52.126Z,8.95
2019-06-26T12:54:23.850Z,8.23
2019-06-26T12:56:55.547Z,12.98
2019-06-26T12:59:27.317Z,13.18
2019-06-26T13:01:59.196Z,13.15
2019-06-26T13:04:30.928Z,10.03
2019-06-26T13:07:02.827Z,11.12
2019-06-26T13:09:34.590Z,13.55
2019-06-26T13:12:06.292Z,14.40
2019-06-26T13:14:38.116Z,16.40
2019-06-26T13:17:09.855Z,12.07
2019-06-26T13:19:41.668Z,8.73
2019-06-26T13:22:13.381Z,15.20
2019-06-26T13:24:45.210Z,13.62
2019-06-26T13:27:16.903Z,14.23
2019-06-26T13:29:48.644Z,13.10
2019-06-26T13:32:20.352Z,13.08
2019-06-26T13:34:52.069Z,11.73
2019-06-26T13:37:23.761Z,14.85
2019-06-26T13:39:55.564Z,14.60
2019-06-26T13:42:27.360Z,12.82
2019-06-26T13:44:59.199Z,12.70
2019-06-26T13:47:30.982Z,12.05
2019-06-26T13:50:03.124Z,20.40
2019-06-26T13:52:34.995Z,15.55
2019-06-26T13:55:06.921Z,14.70
2019-06-26T13:57:38.620Z,22.27
2019-06-26T14:00:10.756Z,16.65
2019-06-26T14:02:42.660Z,12.47
2019-06-26T14:05:14.656Z,15.13
2019-06-26T14:07:46.464Z,12.20
2019-06-26T14:10:18.316Z,15.00
2019-06-26T14:12:50.005Z,15.53
2019-06-26T14:15:22.019Z,12.75
2019-06-26T14:17:53.916Z,12.40
2019-06-26T14:20:25.637Z,12.15
2019-06-26T14:22:57.347Z,15.70
2019-06-26T14:25:29.099Z,14.13
2019-06-26T14:28:00.886Z,13.35
2019-06-26T14:30:32.643Z,18.67
2019-06-26T14:33:04.365Z,13.25
2019-06-26T14:35:36.121Z,12.50
2019-06-26T14:38:07.916Z,9.23
2019-06-26T14:40:39.666Z,11.15
2019-06-26T14:43:11.447Z,20.35
2019-06-26T14:45:43.257Z,15.58
2019-06-26T14:48:14.960Z,20.80
2019-06-26T14:50:46.795Z,14.30
2019-06-26T14:53:18.607Z,14.55
2019-06-26T14:55:50.404Z,17.73
2019-06-26T14:58:22.092Z,21.97
2019-06-26T15:00:53.811Z,15.03
2019-06-26T15:03:25.612Z,13.30
2019-06-26T15:05:57.427Z,14.15
2019-06-26T15:08:29.148Z,11.85
2019-06-26T15:11:00.868Z,9.78
2019-06-26T15:13:32.580Z,12.45
2019-06-26T15:16:04.348Z,9.90
2019-06-26T15:18:36.062Z,12.98
2019-06-26T15:21:08.086Z,13.32
2019-06-26T15:23:39.866Z,13.60
2019-06-26T15:26:11.588Z,13.75
2019-06-26T15:28:43.288Z,16.67
2019-06-26T15:31:15.254Z,15.88
2019-06-26T15:33:46.962Z,13.15
2019-06-26T15:36:18.695Z,12.53
2019-06-26T15:38:50.503Z,15.28
2019-06-26T15:41:22.244Z,13.75
2019-06-26T15:43:53.949Z,10.05
2019-06-26T15:46:25.665Z,10.32
2019-06-26T15:48:57.384Z,10.35
2019-06-26T15:51:29.221Z,20.70
2019-06-26T15:54:00.929Z,9.60
2019-06-26T15:56:32.654Z,17.30
2019-06-26T15:59:04.436Z,13.38
2019-06-26T16:01:36.183Z,11.63
2019-06-26T16:04:07.885Z,8.55
2019-06-26T16:06:39.705Z,8.50
2019-06-26T16:09:11.429Z,18.45
2019-06-26T16:11:43.243Z,9.75
2019-06-26T16:14:14.941Z,14.75
2019-06-26T16:16:48.579Z,15.08
2019-06-26T16:19:21.224Z,13.80
2019-06-26T16:21:53.033Z,9.85
2019-06-26T16:24:24.837Z,17.00
2019-06-26T16:26:56.568Z,10.48
2019-06-26T16:29:28.287Z,6.65
2019-06-26T16:32:00.121Z,9.28
2019-06-26T16:34:31.914Z,9.70
2019-06-26T16:37:03.657Z,8.48
2019-06-26T16:39:35.354Z,13.03
2019-06-26T16:42:07.081Z,10.32
2019-06-26T16:44:38.797Z,11.83
2019-06-26T16:47:10.633Z,12.60
2019-06-26T16:49:42.337Z,8.83
2019-06-26T16:52:14.086Z,11.03
2019-06-26T16:54:45.987Z,10.80
2019-06-26T16:57:17.817Z,11.15
2019-06-26T16:59:49.589Z,13.48
2019-06-26T17:02:21.502Z,17.00
2019-06-26T17:04:53.305Z,8.03
2019-06-26T17:07:25.036Z,10.40
2019-06-26T17:09:56.760Z,15.30
2019-06-26T17:12:28.565Z,14.55
2019-06-26T17:15:03.999Z,8.28
2019-06-26T17:17:34.002Z,8.05
2019-06-26T17:20:06.760Z,6.15
2019-06-26T17:22:38.775Z,10.68
2019-06-26T17:25:11.097Z,7.17
2019-06-26T17:27:42.854Z,7.50
2019-06-26T17:30:14.938Z,10.53
2019-06-26T17:32:46.769Z,13.25
2019-06-26T17:35:18.463Z,7.42
2019-06-26T17:37:50.196Z,8.10
2019-06-26T17:40:22.222Z,9.25
2019-06-26T17:42:54.026Z,10.20
2019-06-26T17:45:25.917Z,7.45
2019-06-26T17:47:57.649Z,7.83
2019-06-26T17:50:29.350Z,6.58
2019-06-26T17:53:01.069Z,9.48
2019-06-26T17:55:32.776Z,13.48
2019-06-26T17:58:04.618Z,10.30
2019-06-26T18:00:36.521Z,4.97
2019-06-26T18:03:08.352Z,6.45
2019-06-26T18:05:40.764Z,8.15
2019-06-26T18:08:12.588Z,12.05
2019-06-26T18:10:44.398Z,5.03
2019-06-26T18:13:16.166Z,7.47
2019-06-26T18:15:47.897Z,7.03
2019-06-26T18:18:19.756Z,6.62
2019-06-26T18:20:51.458Z,9.15
2019-06-26T18:23:36.743Z,7.45
2019-06-26T18:26:11.768Z,8.53
2019-06-26T18:28:30.452Z,12.15
2019-06-26T18:31:02.351Z,13.20
2019-06-26T18:33:34.155Z,13.43
2019-06-26T18:36:06.052Z,14.40
2019-06-26T18:38:37.804Z,9.40
2019-06-26T18:41:09.518Z,9.50
2019-06-26T18:43:41.384Z,9.20
2019-06-26T18:46:13.189Z,6.83
2019-06-26T18:48:44.928Z,7.50
2019-06-26T18:51:16.742Z,7.83
2019-06-26T18:53:53.525Z,7.45
2019-06-26T18:56:22.314Z,6.97
2019-06-26T18:58:54.089Z,8.80
2019-06-26T19:01:25.913Z,10.60
2019-06-26T19:03:57.772Z,8.53
2019-06-26T19:06:29.557Z,11.40
2019-06-26T19:09:01.353Z,7.92
2019-06-26T19:11:33.148Z,8.13
2019-06-26T19:14:04.880Z,6.55
2019-06-26T19:16:36.683Z,6.97
2019-06-26T19:19:12.012Z,9.60
2019-06-26T19:21:42.108Z,8.33
2019-06-26T19:24:13.914Z,16.23
2019-06-26T19:26:45.645Z,11.25
2019-06-26T19:29:17.413Z,7.35
2019-06-26T19:31:49.222Z,7.17
2019-06-26T19:34:21.033Z,10.03
2019-06-26T19:36:52.837Z,7.78
2019-06-26T19:39:24.562Z,8.90
2019-06-26T19:41:56.270Z,11.53
2019-06-26T19:44:28.128Z,12.05
2019-06-26T19:46:59.947Z,8.40
2019-06-26T19:49:31.781Z,14.20
2019-06-26T19:52:03.628Z,7.62
2019-06-26T19:54:35.449Z,6.55
2019-06-26T19:57:07.160Z,7.53
2019-06-26T19:59:38.909Z,14.50
2019-06-26T20:02:10.628Z,10.35
2019-06-26T20:04:42.356Z,5.03
2019-06-26T20:07:14.156Z,9.95
2019-06-26T20:09:45.984Z,6.45
2019-06-26T20:12:17.705Z,7.40
2019-06-26T20:14:49.520Z,9.33
2019-06-26T20:17:21.239Z,8.43
2019-06-26T20:19:53.066Z,9.43
2019-06-26T20:22:24.771Z,11.90
2019-06-26T20:24:57.491Z,7.08
2019-06-26T20:27:29.331Z,5.95
2019-06-26T20:30:01.268Z,9.35
2019-06-26T20:32:33.008Z,9.80
2019-06-26T20:35:06.091Z,8.60
2019-06-26T20:37:37.891Z,7.03
2019-06-26T20:40:10.508Z,16.15
2019-06-26T20:42:42.347Z,11.85
2019-06-26T20:45:16.177Z,10.45
2019-06-26T20:47:47.890Z,10.53
2019-06-26T20:50:19.623Z,7.75
2019-06-26T20:52:51.336Z,10.88
2019-06-26T20:55:23.185Z,6.75
2019-06-26T21:00:26.472Z,10.35
2019-06-26T21:02:58.298Z,15.35
2019-06-26T21:05:30.108Z,12.50
2019-06-26T21:08:01.910Z,7.58
2019-06-26T21:10:33.759Z,6.50
2019-06-26T21:13:05.548Z,9.50
2019-06-26T21:15:37.276Z,8.40
2019-06-26T21:18:08.972Z,13.38
2019-06-26T21:20:40.713Z,6.35
2019-06-26T21:23:18.531Z,5.45
2019-06-26T21:25:46.140Z,8.10
2019-06-26T21:28:17.848Z,12.37
2019-06-26T21:30:49.711Z,9.85
2019-06-26T21:33:21.410Z,5.10
2019-06-26T21:35:53.127Z,12.63
2019-06-26T21:38:24.833Z,7.05
2019-06-26T21:40:56.565Z,5.15
2019-06-26T21:43:28.254Z,11.20
2019-06-26T21:45:59.979Z,9.70
2019-06-26T21:48:31.684Z,14.33
2019-06-26T21:51:03.408Z,11.20
2019-06-26T21:53:35.261Z,11.25
2019-06-26T21:56:07.629Z,6.55
2019-06-26T21:58:39.371Z,11.70
2019-06-26T22:01:11.286Z,5.90
2019-06-26T22:03:42.992Z,7.33
2019-06-26T22:06:14.822Z,8.13
2019-06-26T22:08:46.618Z,8.85
2019-06-26T22:11:18.326Z,4.55
2019-06-26T22:13:50.020Z,8.95
2019-06-26T22:16:21.959Z,8.93
2019-06-26T22:18:53.660Z,7.15
2019-06-26T22:21:25.473Z,7.53
2019-06-26T22:23:57.185Z,6.22
2019-06-26T22:26:29.101Z,7.62
2019-06-26T22:29:01.029Z,6.20
2019-06-26T22:31:32.856Z,10.38
2019-06-26T22:34:04.578Z,11.25
2019-06-26T22:36:36.410Z,16.55
2019-06-26T22:39:08.289Z,13.95
2019-06-26T22:41:40.324Z,8.53
2019-06-26T22:44:12.023Z,9.53
2019-06-26T22:46:43.760Z,10.78
2019-06-26T22:49:15.567Z,11.57
2019-06-26T22:51:47.531Z,10.05
2019-06-26T22:54:19.970Z,8.90
2019-06-26T22:56:51.957Z,10.17
2019-06-26T22:59:23.657Z,18.27
2019-06-26T23:01:55.395Z,14.80
2019-06-26T23:04:27.187Z,10.55
2019-06-26T23:06:58.904Z,12.58
2019-06-26T23:09:30.649Z,15.85
2019-06-26T23:12:02.635Z,17.48
2019-06-26T23:14:34.542Z,10.67
2019-06-26T23:17:06.364Z,12.63
2019-06-26T23:19:38.171Z,29.77
2019-06-26T23:22:09.893Z,14.13
2019-06-26T23:24:41.637Z,12.20
2019-06-26T23:27:13.448Z,13.33
2019-06-26T23:29:45.141Z,16.00
2019-06-26T23:32:16.879Z,20.97
2019-06-26T23:34:48.617Z,14.73
2019-06-26T23:37:20.371Z,17.93
2019-06-26T23:39:52.098Z,19.97
2019-06-26T23:42:23.883Z,18.00
2019-06-26T23:44:55.577Z,14.27
2019-06-26T23:47:27.301Z,14.70
2019-06-26T23:49:59.044Z,13.40
2019-06-26T23:52:30.766Z,10.80
2019-06-26T23:55:02.716Z,16.03
2019-06-26T23:57:34.435Z,16.20
